createdAt,value
2022-08-21T00:00:24.000Z,8.3
2022-08-21T00:01:40.000Z,9.3
2022-08-21T00:02:56.000Z,9.2
2022-08-21T00:04:11.000Z,8.5
2022-08-21T00:05:27.000Z,8.1
2022-08-21T00:06:43.000Z,8.6
2022-08-21T00:07:59.000Z,8.7
2022-08-21T00:09:16.000Z,9.3
2022-08-21T00:10:32.000Z,7.9
2022-08-21T00:11:48.000Z,8.5
2022-08-21T00:13:04.000Z,9
2022-08-21T00:14:20.000Z,8.9
2022-08-21T00:15:37.082Z,9.1
2022-08-21T00:16:52.000Z,10.2
2022-08-21T00:18:09.000Z,9.7
2022-08-21T00:19:25.000Z,10.8
2022-08-21T00:20:40.000Z,9.6
2022-08-21T00:21:56.000Z,10.7
2022-08-21T00:23:12.000Z,10.4
2022-08-21T00:24:29.097Z,10.5
2022-08-21T00:25:45.000Z,10
2022-08-21T00:27:01.000Z,9.9
2022-08-21T00:28:17.000Z,11.3
2022-08-21T00:29:33.000Z,10.5
2022-08-21T00:30:49.000Z,10.3
2022-08-21T00:32:05.000Z,10.3
2022-08-21T00:33:21.000Z,10.2
2022-08-21T00:34:38.259Z,10.2
2022-08-21T00:35:54.000Z,10.5
2022-08-21T00:37:09.000Z,11
2022-08-21T00:38:25.000Z,10.6
2022-08-21T00:39:41.000Z,11.2
2022-08-21T00:40:57.000Z,10.4
2022-08-21T00:42:14.152Z,10.4
2022-08-21T00:43:30.000Z,11.6
2022-08-21T00:44:45.000Z,11.2
2022-08-21T00:46:01.000Z,11.2
2022-08-21T00:47:17.000Z,11.3
2022-08-21T00:48:33.000Z,11.6
2022-08-21T00:49:49.000Z,11.7
2022-08-21T00:51:06.199Z,11.8
2022-08-21T00:52:22.000Z,11.2
2022-08-21T00:53:38.000Z,11.5
2022-08-21T00:54:54.000Z,11.8
2022-08-21T00:56:10.000Z,12.1
2022-08-21T00:57:26.000Z,12
2022-08-21T00:58:42.000Z,12
2022-08-21T00:59:58.000Z,11.8
2022-08-21T01:01:14.000Z,12.1
2022-08-21T01:02:30.517Z,11.7
2022-08-21T01:03:46.000Z,11.3
2022-08-21T01:05:02.000Z,11.8
2022-08-21T01:06:18.000Z,11.8
2022-08-21T01:07:34.000Z,11.9
2022-08-21T01:08:51.000Z,12.4
2022-08-21T01:10:07.000Z,12.6
2022-08-21T01:11:23.532Z,12.7
2022-08-21T01:12:39.000Z,13.1
2022-08-21T01:13:55.820Z,13.5
2022-08-21T01:15:11.000Z,13.2
2022-08-21T01:16:27.000Z,13.2
2022-08-21T01:17:43.000Z,14.1
2022-08-21T01:18:59.000Z,13.2
2022-08-21T01:20:15.000Z,14
2022-08-21T01:21:31.000Z,15.2
2022-08-21T01:22:47.860Z,15.7
2022-08-21T01:24:03.000Z,15.8
2022-08-21T01:25:19.000Z,15.1
2022-08-21T01:26:36.000Z,15.2
2022-08-21T01:27:52.000Z,14.6
2022-08-21T01:29:08.000Z,14
2022-08-21T01:30:24.732Z,15.2
2022-08-21T01:31:40.000Z,15
2022-08-21T01:32:56.000Z,16.4
2022-08-21T01:34:11.000Z,15.3
2022-08-21T01:35:28.000Z,16.1
2022-08-21T01:36:44.474Z,16.3
2022-08-21T01:38:00.620Z,17
2022-08-21T01:39:16.000Z,18.2
2022-08-21T01:40:32.000Z,17
2022-08-21T01:41:48.000Z,17.6
2022-08-21T01:43:04.000Z,16.9
2022-08-21T01:44:21.000Z,18.3
2022-08-21T01:45:37.000Z,17.6
2022-08-21T01:46:53.000Z,18.4
2022-08-21T01:48:09.000Z,18
2022-08-21T01:49:25.000Z,16.9
2022-08-21T01:50:40.000Z,17.2
2022-08-21T01:51:57.000Z,17.2
2022-08-21T01:53:13.000Z,17.1
2022-08-21T01:54:29.000Z,17.6
2022-08-21T01:55:45.000Z,17.6
2022-08-21T01:57:01.000Z,17.9
2022-08-21T01:58:17.000Z,18.7
2022-08-21T01:59:33.000Z,19.4
2022-08-21T02:00:50.000Z,18.3
2022-08-21T02:02:06.000Z,18.3
2022-08-21T02:03:22.000Z,19.1
2022-08-21T02:04:38.000Z,19.5
2022-08-21T02:05:54.000Z,18.5
2022-08-21T02:07:09.000Z,19
2022-08-21T02:08:26.145Z,19.1
2022-08-21T02:09:42.000Z,18.4
2022-08-21T02:10:58.438Z,19.5
2022-08-21T02:12:14.589Z,19
2022-08-21T02:13:30.000Z,18.3
2022-08-21T02:14:46.000Z,17.9
2022-08-21T02:16:02.000Z,16.8
2022-08-21T02:17:18.000Z,17.7
2022-08-21T02:18:35.000Z,18.3
2022-08-21T02:19:51.000Z,17.1
2022-08-21T02:21:07.000Z,16.8
2022-08-21T02:22:23.000Z,17.2
2022-08-21T02:23:38.000Z,16.9
2022-08-21T02:24:55.064Z,17.8
2022-08-21T02:26:11.196Z,16.7
2022-08-21T02:27:27.336Z,16.7
2022-08-21T02:28:43.000Z,18
2022-08-21T02:29:59.000Z,18.6
2022-08-21T02:31:15.000Z,19.2
2022-08-21T02:32:31.923Z,18.5
2022-08-21T02:33:47.000Z,19.7
2022-08-21T02:35:04.210Z,19.5
2022-08-21T02:36:20.000Z,19.8
2022-08-21T02:37:36.000Z,20.3
2022-08-21T02:38:52.000Z,19.7
2022-08-21T02:40:07.000Z,19.3
2022-08-21T02:41:23.000Z,20.4
2022-08-21T02:42:39.000Z,20.5
2022-08-21T02:43:56.000Z,21.1
2022-08-21T02:45:12.000Z,21.9
2022-08-21T02:46:28.000Z,23.6
2022-08-21T02:47:44.000Z,22.9
2022-08-21T02:49:00.831Z,21.4
2022-08-21T02:50:16.975Z,24.1
2022-08-21T02:51:32.000Z,23.8
2022-08-21T02:52:49.000Z,22.7
2022-08-21T02:54:05.000Z,22.8
2022-08-21T02:55:21.000Z,25.2
2022-08-21T02:56:36.000Z,24.2
2022-08-21T02:57:52.000Z,24
2022-08-21T02:59:09.013Z,23.8
2022-08-21T03:00:24.000Z,25.9
2022-08-21T03:01:41.000Z,24.4
2022-08-21T03:02:57.000Z,23
2022-08-21T03:04:13.000Z,25.3
2022-08-21T03:05:29.000Z,25.1
2022-08-21T03:06:45.000Z,25.3
2022-08-21T03:08:02.022Z,25.1
2022-08-21T03:09:17.000Z,25.9
2022-08-21T03:10:34.000Z,25.4
2022-08-21T03:11:50.000Z,25.2
2022-08-21T03:13:05.000Z,26.4
2022-08-21T03:14:21.773Z,26.1
2022-08-21T03:15:37.000Z,26.1
2022-08-21T03:16:53.000Z,25.5
2022-08-21T03:18:09.000Z,26.6
2022-08-21T03:19:26.000Z,25.8
2022-08-21T03:20:42.498Z,26.3
2022-08-21T03:21:58.000Z,26.5
2022-08-21T03:23:14.000Z,25.2
2022-08-21T03:24:30.000Z,25
2022-08-21T03:25:46.000Z,25.5
2022-08-21T03:27:03.000Z,24.4
2022-08-21T03:28:19.000Z,25.5
2022-08-21T03:29:34.000Z,26.3
2022-08-21T03:30:50.687Z,26.1
2022-08-21T03:32:06.000Z,25.6
2022-08-21T03:33:22.000Z,26.5
2022-08-21T03:34:38.000Z,25.7
2022-08-21T03:35:55.000Z,26
2022-08-21T03:37:11.000Z,27.7
2022-08-21T03:38:27.000Z,26.1
2022-08-21T03:39:43.000Z,25.2
2022-08-21T03:40:59.000Z,26.1
2022-08-21T03:42:15.000Z,26.8
2022-08-21T03:43:32.158Z,25.1
2022-08-21T03:44:48.000Z,25.5
2022-08-21T03:46:03.000Z,25
2022-08-21T03:47:19.000Z,25.6
2022-08-21T03:48:35.769Z,26.3
2022-08-21T03:49:51.000Z,24
2022-08-21T03:51:08.057Z,24.3
2022-08-21T03:52:23.000Z,24
2022-08-21T03:53:40.000Z,25.6
2022-08-21T03:54:56.000Z,26.4
2022-08-21T03:56:12.641Z,26.2
2022-08-21T03:57:28.000Z,24.7
2022-08-21T03:58:44.000Z,26.4
2022-08-21T04:00:01.089Z,26.2
2022-08-21T04:01:16.000Z,27.1
2022-08-21T04:02:32.000Z,26.9
2022-08-21T04:03:48.000Z,27.3
2022-08-21T04:05:04.000Z,26.2
2022-08-21T04:06:20.000Z,25.9
2022-08-21T04:07:36.000Z,25.8
2022-08-21T04:08:52.000Z,25.4
2022-08-21T04:10:09.000Z,26.3
2022-08-21T04:11:25.000Z,26.2
2022-08-21T04:12:41.000Z,24.9
2022-08-21T04:13:57.744Z,26.9
2022-08-21T04:15:13.000Z,28.2
2022-08-21T04:16:30.011Z,26.1
2022-08-21T04:17:45.000Z,27.5
2022-08-21T04:19:01.316Z,27.9
2022-08-21T04:20:17.000Z,26.3
2022-08-21T04:21:33.000Z,27.3
2022-08-21T04:22:49.760Z,26.6
2022-08-21T04:24:05.000Z,27.3
2022-08-21T04:25:21.000Z,26.6
2022-08-21T04:26:37.000Z,26.3
2022-08-21T04:27:54.000Z,27.4
2022-08-21T04:29:10.000Z,27.1
2022-08-21T04:30:26.000Z,27.6
2022-08-21T04:31:42.780Z,27.1
2022-08-21T04:32:58.000Z,27
2022-08-21T04:34:14.000Z,27.3
2022-08-21T04:35:30.000Z,27.4
2022-08-21T04:36:46.000Z,28
2022-08-21T04:38:02.000Z,27.4
2022-08-21T04:39:18.000Z,27.1
2022-08-21T04:40:34.000Z,28
2022-08-21T04:41:50.000Z,28
2022-08-21T04:43:07.121Z,28.9
2022-08-21T04:44:23.000Z,27.8
2022-08-21T04:45:39.000Z,27.4
2022-08-21T04:46:55.000Z,26.9
2022-08-21T04:48:11.000Z,28.5
2022-08-21T04:49:27.000Z,27.8
2022-08-21T04:50:43.000Z,27.6
2022-08-21T04:51:58.000Z,28.2
2022-08-21T04:53:15.000Z,27.7
2022-08-21T04:54:31.000Z,29.5
2022-08-21T04:55:47.000Z,27.3
2022-08-21T04:57:03.000Z,28.7
2022-08-21T04:58:19.000Z,28.4
2022-08-21T04:59:34.000Z,29.2
2022-08-21T05:00:50.000Z,28.4
2022-08-21T05:02:07.000Z,28.7
2022-08-21T05:03:23.000Z,28.9
2022-08-21T05:04:39.653Z,28.7
2022-08-21T05:05:55.000Z,28.9
2022-08-21T05:07:11.000Z,28.4
2022-08-21T05:08:27.000Z,28.1
2022-08-21T05:09:44.000Z,27.2
2022-08-21T05:11:00.000Z,27.4
2022-08-21T05:12:16.000Z,26.5
2022-08-21T05:13:32.000Z,26.5
2022-08-21T05:14:48.000Z,27.1
2022-08-21T05:16:03.000Z,25.7
2022-08-21T05:17:19.000Z,25.6
2022-08-21T05:18:36.000Z,26.5
2022-08-21T05:19:52.000Z,25.4
2022-08-21T05:21:08.000Z,26.8
2022-08-21T05:22:24.000Z,26.4
2022-08-21T05:23:40.000Z,26.1
2022-08-21T05:24:56.000Z,27.7
2022-08-21T05:26:12.000Z,27.1
2022-08-21T05:27:29.000Z,27.9
2022-08-21T05:28:45.000Z,26.8
2022-08-21T05:30:01.000Z,27.3
2022-08-21T05:31:17.000Z,27.3
2022-08-21T05:32:32.911Z,28.5
2022-08-21T05:33:48.000Z,27
2022-08-21T05:35:04.000Z,27.5
2022-08-21T05:36:21.000Z,26.4
2022-08-21T05:37:37.000Z,27.3
2022-08-21T05:38:53.654Z,27.6
2022-08-21T05:40:09.793Z,27.3
2022-08-21T05:41:25.954Z,26.2
2022-08-21T05:42:41.000Z,24.3
2022-08-21T05:43:58.000Z,24.9
2022-08-21T05:45:14.378Z,25
2022-08-21T05:46:30.000Z,23.5
2022-08-21T05:47:46.000Z,22.7
2022-08-21T05:49:01.000Z,21.3
2022-08-21T05:50:17.000Z,21.4
2022-08-21T05:51:33.000Z,20.3
2022-08-21T05:52:50.000Z,19.7
2022-08-21T05:54:06.000Z,18.8
2022-08-21T05:55:22.000Z,18.7
2022-08-21T05:56:38.000Z,17.8
2022-08-21T05:57:54.000Z,16
2022-08-21T05:59:10.000Z,16.2
2022-08-21T06:00:26.000Z,15.4
2022-08-21T06:01:43.000Z,14.7
2022-08-21T06:02:59.000Z,14.8
2022-08-21T06:04:15.000Z,14.5
2022-08-21T06:05:30.000Z,13.8
2022-08-21T06:06:46.000Z,14.1
2022-08-21T06:08:02.000Z,13.1
2022-08-21T06:09:18.000Z,13.3
2022-08-21T06:10:35.000Z,13.2
2022-08-21T06:11:51.000Z,12.1
2022-08-21T06:13:07.000Z,12.7
2022-08-21T06:14:23.000Z,12.1
2022-08-21T06:15:39.000Z,12.3
2022-08-21T06:16:55.000Z,11.5
2022-08-21T06:18:11.000Z,11.6
2022-08-21T06:19:28.000Z,11.4
2022-08-21T06:20:44.000Z,10.6
2022-08-21T06:21:59.000Z,9.9
2022-08-21T06:23:15.000Z,9.4
2022-08-21T06:24:31.975Z,9
2022-08-21T06:25:47.000Z,8.5
2022-08-21T06:27:04.277Z,9.4
2022-08-21T06:28:20.419Z,8.5
2022-08-21T06:29:36.000Z,8
2022-08-21T06:30:52.000Z,7.8
2022-08-21T06:32:08.000Z,7.6
2022-08-21T06:33:25.007Z,8.1
2022-08-21T06:34:40.000Z,6.8
2022-08-21T06:35:57.000Z,6.9
2022-08-21T06:37:13.444Z,7
2022-08-21T06:38:28.617Z,6.6
2022-08-21T06:39:44.000Z,6.8
2022-08-21T06:41:00.000Z,6.4
2022-08-21T06:42:16.000Z,6.4
2022-08-21T06:43:32.000Z,5.8
2022-08-21T06:44:49.000Z,6.2
2022-08-21T06:46:05.000Z,6.2
2022-08-21T06:47:21.000Z,5.9
2022-08-21T06:48:37.000Z,5.5
2022-08-21T06:49:53.930Z,6.4
2022-08-21T06:51:09.000Z,5.2
2022-08-21T06:52:25.000Z,5
2022-08-21T06:53:42.000Z,5.3
2022-08-21T06:54:57.000Z,5.1
2022-08-21T06:56:13.000Z,5.1
2022-08-21T06:57:29.000Z,4.9
2022-08-21T06:58:45.000Z,5.1
2022-08-21T07:00:02.120Z,4.6
2022-08-21T07:01:18.000Z,4.5
2022-08-21T07:02:34.000Z,4.5
2022-08-21T07:03:50.562Z,4.4
2022-08-21T07:05:06.000Z,4.1
2022-08-21T07:06:22.000Z,3.5
2022-08-21T07:07:38.999Z,3.9
2022-08-21T07:08:54.000Z,3.7
2022-08-21T07:10:11.290Z,4.1
2022-08-21T07:11:26.000Z,3.5
2022-08-21T07:12:42.000Z,4.3
2022-08-21T07:13:58.747Z,3.8
2022-08-21T07:15:14.927Z,3.3
2022-08-21T07:16:30.000Z,3.5
2022-08-21T07:17:46.000Z,3.9
2022-08-21T07:19:03.330Z,3.1
2022-08-21T07:20:19.000Z,3.5
2022-08-21T07:21:35.000Z,3.3
2022-08-21T07:22:51.000Z,3
2022-08-21T07:24:07.914Z,2.8
2022-08-21T07:25:24.070Z,3
2022-08-21T07:26:39.000Z,3.4
2022-08-21T07:27:55.000Z,2.6
2022-08-21T07:29:11.000Z,2.3
2022-08-21T07:30:27.000Z,2.6
2022-08-21T07:31:43.000Z,3
2022-08-21T07:32:59.962Z,3.2
2022-08-21T07:34:16.106Z,2.4
2022-08-21T07:35:32.000Z,2.9
2022-08-21T07:36:48.000Z,2.7
2022-08-21T07:38:04.000Z,2.8
2022-08-21T07:39:20.710Z,2.3
2022-08-21T07:40:36.857Z,2.3
2022-08-21T07:41:52.000Z,2.7
2022-08-21T07:43:09.131Z,2.3
2022-08-21T07:44:24.295Z,2.3
2022-08-21T07:45:40.000Z,2.8
2022-08-21T07:46:56.000Z,2.6
2022-08-21T07:48:12.000Z,2
2022-08-21T07:49:28.000Z,2.6
2022-08-21T07:50:44.000Z,2.1
2022-08-21T07:52:00.000Z,2.5
2022-08-21T07:53:17.000Z,2.6
2022-08-21T07:54:33.000Z,2.4
2022-08-21T07:55:49.000Z,2.6
2022-08-21T07:57:05.763Z,3.1
2022-08-21T07:58:21.000Z,2.4
2022-08-21T07:59:37.000Z,2.5
2022-08-21T08:00:52.000Z,2.8
2022-08-21T08:02:09.000Z,3
2022-08-21T08:03:25.000Z,2.7
2022-08-21T08:04:41.666Z,2.5
2022-08-21T08:05:57.811Z,2.7
2022-08-21T08:07:13.952Z,2.9
2022-08-21T08:08:29.000Z,2.6
2022-08-21T08:09:46.000Z,3.4
2022-08-21T08:11:02.000Z,2.8
2022-08-21T08:12:18.000Z,2.5
2022-08-21T08:13:34.000Z,2.8
2022-08-21T08:14:50.000Z,2.9
2022-08-21T08:16:06.977Z,2.9
2022-08-21T08:17:21.000Z,2.9
2022-08-21T08:18:38.000Z,2.7
2022-08-21T08:19:54.000Z,3
2022-08-21T08:21:10.585Z,2.6
2022-08-21T08:22:26.000Z,2.6
2022-08-21T08:23:42.000Z,2.9
2022-08-21T08:24:58.000Z,2.6
2022-08-21T08:26:14.000Z,2.4
2022-08-21T08:27:31.000Z,2.2
2022-08-21T08:28:47.000Z,2.3
2022-08-21T08:30:03.000Z,2.3
2022-08-21T08:31:19.000Z,2.7
2022-08-21T08:32:35.000Z,2.7
2022-08-21T08:33:50.000Z,2.4
2022-08-21T08:35:06.000Z,2.5
2022-08-21T08:36:23.000Z,2.7
2022-08-21T08:37:39.000Z,2.7
2022-08-21T08:38:55.000Z,2.5
2022-08-21T08:40:11.000Z,2.6
2022-08-21T08:41:27.946Z,2.4
2022-08-21T08:42:43.000Z,2.6
2022-08-21T08:44:00.000Z,2.2
2022-08-21T08:45:16.000Z,2.1
2022-08-21T08:46:32.000Z,2.4
2022-08-21T08:47:48.000Z,2.9
2022-08-21T08:49:04.841Z,2.5
2022-08-21T08:50:19.000Z,2.4
2022-08-21T08:51:36.131Z,2.4
2022-08-21T08:52:52.000Z,2.9
2022-08-21T08:54:08.000Z,2.5
2022-08-21T08:55:24.000Z,2.4
2022-08-21T08:56:40.000Z,2.3
2022-08-21T08:57:56.874Z,2.8
2022-08-21T08:59:12.000Z,2.5
2022-08-21T09:00:29.161Z,2.7
2022-08-21T09:01:45.000Z,2.6
2022-08-21T09:03:01.000Z,2.4
2022-08-21T09:04:17.000Z,2.5
2022-08-21T09:05:33.000Z,3
2022-08-21T09:06:48.000Z,3
2022-08-21T09:08:04.000Z,3.1
2022-08-21T09:09:21.209Z,2.9
2022-08-21T09:10:37.000Z,2.9
2022-08-21T09:11:53.000Z,2.7
2022-08-21T09:13:09.000Z,2.9
2022-08-21T09:14:24.000Z,2.8
2022-08-21T09:15:40.000Z,2.8
2022-08-21T09:16:56.000Z,3
2022-08-21T09:18:13.254Z,3
2022-08-21T09:19:29.000Z,3.1
2022-08-21T09:20:45.000Z,2.5
2022-08-21T09:22:01.000Z,3
2022-08-21T09:23:17.000Z,2.8
2022-08-21T09:24:33.000Z,3.3
2022-08-21T09:25:49.000Z,3
2022-08-21T09:27:06.000Z,3.2
2022-08-21T09:28:22.000Z,3
2022-08-21T09:29:38.000Z,2.9
2022-08-21T09:30:53.000Z,3.4
2022-08-21T09:32:09.887Z,2.7
2022-08-21T09:33:25.000Z,2.5
2022-08-21T09:34:41.000Z,2.3
2022-08-21T09:35:58.000Z,2.6
2022-08-21T09:37:14.000Z,2.6
2022-08-21T09:38:30.000Z,2.5
2022-08-21T09:39:46.000Z,2.4
2022-08-21T09:41:02.000Z,2.6
2022-08-21T09:42:19.064Z,2.8
2022-08-21T09:43:35.211Z,2.6
2022-08-21T09:44:51.000Z,2.6
2022-08-21T09:46:07.000Z,3.1
2022-08-21T09:47:22.000Z,2.7
2022-08-21T09:48:38.000Z,2.6
2022-08-21T09:49:54.961Z,2.4
2022-08-21T09:51:11.103Z,2.4
2022-08-21T09:52:27.248Z,3
2022-08-21T09:53:43.000Z,2.3
2022-08-21T09:54:59.553Z,2.9
2022-08-21T09:56:15.000Z,3
2022-08-21T09:57:31.000Z,2.5
2022-08-21T09:58:47.000Z,2.5
2022-08-21T10:00:03.000Z,2.6
2022-08-21T10:01:20.000Z,2.3
2022-08-21T10:02:36.000Z,3.1
2022-08-21T10:03:51.000Z,2.2
2022-08-21T10:05:07.736Z,2.4
2022-08-21T10:06:23.880Z,2.4
2022-08-21T10:07:39.000Z,2.1
2022-08-21T10:08:55.000Z,2.4
2022-08-21T10:10:12.000Z,2.7
2022-08-21T10:11:28.000Z,2.2
2022-08-21T10:12:44.000Z,2.2
2022-08-21T10:14:00.000Z,2.5
2022-08-21T10:15:16.000Z,2.8
2022-08-21T10:16:32.000Z,2.2
2022-08-21T10:17:48.000Z,2.1
2022-08-21T10:19:05.000Z,2.4
2022-08-21T10:20:20.000Z,2
2022-08-21T10:21:36.000Z,2.1
2022-08-21T10:22:52.000Z,1.9
2022-08-21T10:24:08.000Z,2
2022-08-21T10:25:24.000Z,1.7
2022-08-21T10:26:41.246Z,1.9
2022-08-21T10:27:57.000Z,2
2022-08-21T10:29:13.000Z,2.1
2022-08-21T10:30:29.000Z,1.7
2022-08-21T10:31:45.000Z,1.6
2022-08-21T10:33:01.000Z,1.9
2022-08-21T10:34:17.000Z,2
2022-08-21T10:35:34.000Z,1.6
2022-08-21T10:36:49.000Z,1.8
2022-08-21T10:38:05.000Z,1.8
2022-08-21T10:39:21.000Z,2.1
2022-08-21T10:40:37.000Z,1.5
2022-08-21T10:41:53.000Z,1.9
2022-08-21T10:43:10.177Z,1.5
2022-08-21T10:44:26.000Z,1.4
2022-08-21T10:45:42.000Z,1.5
2022-08-21T10:46:58.000Z,1.3
2022-08-21T10:48:14.000Z,1.6
2022-08-21T10:49:30.000Z,1.4
2022-08-21T10:50:46.000Z,1.6
2022-08-21T10:52:02.000Z,1.9
2022-08-21T10:53:18.369Z,1.5
2022-08-21T10:54:34.000Z,1.7
2022-08-21T10:55:50.000Z,1.5
2022-08-21T10:57:06.000Z,1.8
2022-08-21T10:58:22.000Z,1.3
2022-08-21T10:59:39.097Z,1.8
2022-08-21T11:00:55.000Z,1.4
2022-08-21T11:02:11.000Z,1.2
2022-08-21T11:03:27.000Z,1.4
2022-08-21T11:04:43.000Z,1.3
2022-08-21T11:05:59.000Z,1.1
2022-08-21T11:07:15.000Z,1.2
2022-08-21T11:08:32.148Z,1.5
2022-08-21T11:09:47.000Z,1.6
2022-08-21T11:11:03.000Z,1.2
2022-08-21T11:12:19.000Z,1.5
2022-08-21T11:13:35.729Z,1.4
2022-08-21T11:14:51.000Z,1.4
2022-08-21T11:16:07.000Z,1.3
2022-08-21T11:17:24.195Z,1.8
2022-08-21T11:18:40.333Z,1.2
2022-08-21T11:19:56.000Z,1.3
2022-08-21T11:21:12.616Z,1.3
2022-08-21T11:22:28.000Z,1.3
2022-08-21T11:23:44.914Z,1.5
2022-08-21T11:25:00.000Z,1.6
2022-08-21T11:26:15.000Z,1.4
2022-08-21T11:27:32.000Z,1.6
2022-08-21T11:28:48.000Z,1.8
2022-08-21T11:30:04.000Z,1.5
2022-08-21T11:31:20.809Z,1.6
2022-08-21T11:32:36.000Z,1.3
2022-08-21T11:33:52.000Z,1.3
2022-08-21T11:35:09.000Z,1.9
2022-08-21T11:36:25.000Z,1.6
2022-08-21T11:37:41.000Z,1.4
2022-08-21T11:38:57.000Z,1.7
2022-08-21T11:40:13.000Z,1.7
2022-08-21T11:41:29.000Z,1.9
2022-08-21T11:42:44.000Z,1.7
2022-08-21T11:44:01.299Z,2.1
2022-08-21T11:45:17.000Z,1.7
2022-08-21T11:46:33.000Z,1.6
2022-08-21T11:47:49.742Z,1.4
2022-08-21T11:49:05.885Z,1.5
2022-08-21T11:50:21.000Z,1.5
2022-08-21T11:51:37.000Z,1.8
2022-08-21T11:52:54.000Z,2
2022-08-21T11:54:10.000Z,1.8
2022-08-21T11:55:26.000Z,1.8
2022-08-21T11:56:42.771Z,1.8
2022-08-21T11:57:58.000Z,2
2022-08-21T11:59:14.080Z,1.6
2022-08-21T12:00:29.000Z,1.8
2022-08-21T12:01:46.000Z,1.9
2022-08-21T12:03:02.000Z,1.9
2022-08-21T12:04:18.000Z,1.6
2022-08-21T12:05:34.000Z,1.8
2022-08-21T12:06:50.967Z,1.7
2022-08-21T12:08:06.000Z,2
2022-08-21T12:09:23.000Z,1.4
2022-08-21T12:10:39.000Z,2.1
2022-08-21T12:11:55.000Z,1.8
2022-08-21T12:13:11.694Z,2.1
2022-08-21T12:14:27.000Z,1.8
2022-08-21T12:15:43.009Z,1.8
2022-08-21T12:16:58.000Z,1.7
2022-08-21T12:18:15.303Z,1.7
2022-08-21T12:19:31.000Z,1.7
2022-08-21T12:20:47.000Z,1.4
2022-08-21T12:22:03.000Z,1.7
2022-08-21T12:23:19.000Z,1.9
2022-08-21T12:24:35.000Z,1.9
2022-08-21T12:25:51.000Z,2
2022-08-21T12:27:08.000Z,1.7
2022-08-21T12:28:24.000Z,1.7
2022-08-21T12:29:40.000Z,2
2022-08-21T12:30:56.000Z,1.9
2022-08-21T12:32:11.000Z,2.2
2022-08-21T12:33:27.000Z,1.9
2022-08-21T12:34:43.000Z,1.8
2022-08-21T12:36:00.000Z,1.8
2022-08-21T12:37:16.000Z,2
2022-08-21T12:38:32.000Z,2
2022-08-21T12:39:48.000Z,1.7
2022-08-21T12:41:04.000Z,2.1
2022-08-21T12:42:20.000Z,2
2022-08-21T12:43:37.255Z,1.9
2022-08-21T12:44:53.000Z,2.3
2022-08-21T12:46:09.000Z,2
2022-08-21T12:47:25.000Z,2.1
2022-08-21T12:48:40.000Z,2.5
2022-08-21T12:49:56.000Z,2
2022-08-21T12:51:12.000Z,2.4
2022-08-21T12:52:29.000Z,2
2022-08-21T12:53:45.000Z,2
2022-08-21T12:55:01.589Z,2.3
2022-08-21T12:56:17.000Z,2.2
2022-08-21T12:57:33.000Z,2.5
2022-08-21T12:58:49.000Z,2.2
2022-08-21T13:00:05.000Z,2.6
2022-08-21T13:01:22.329Z,2.2
2022-08-21T13:02:38.000Z,2.2
2022-08-21T13:03:54.000Z,2
2022-08-21T13:05:09.000Z,2.5
2022-08-21T13:06:25.000Z,2.6
2022-08-21T13:07:41.000Z,2.3
2022-08-21T13:08:57.000Z,3.1
2022-08-21T13:10:14.000Z,2.3
2022-08-21T13:11:30.000Z,2.6
2022-08-21T13:12:46.000Z,2.8
2022-08-21T13:14:02.000Z,3.4
2022-08-21T13:15:18.000Z,3.6
2022-08-21T13:16:34.000Z,2.9
2022-08-21T13:17:51.225Z,3.8
2022-08-21T13:19:07.000Z,2.9
2022-08-21T13:20:23.000Z,3
2022-08-21T13:21:38.000Z,3.7
2022-08-21T13:22:54.000Z,2.9
2022-08-21T13:24:10.000Z,3.3
2022-08-21T13:25:26.000Z,2.9
2022-08-21T13:26:43.000Z,2.8
2022-08-21T13:27:59.000Z,3.4
2022-08-21T13:29:14.000Z,3.1
2022-08-21T13:30:30.000Z,3.7
2022-08-21T13:31:46.000Z,3.1
2022-08-21T13:33:03.032Z,2.9
2022-08-21T13:34:18.000Z,3.1
2022-08-21T13:35:35.000Z,3.6
2022-08-21T13:36:51.000Z,3.3
2022-08-21T13:38:07.000Z,3.7
2022-08-21T13:39:23.000Z,3
2022-08-21T13:40:39.000Z,3.1
2022-08-21T13:41:55.000Z,3.2
2022-08-21T13:43:11.000Z,2.7
2022-08-21T13:44:28.000Z,2.8
2022-08-21T13:45:43.000Z,3.5
2022-08-21T13:46:59.000Z,2.7
2022-08-21T13:48:15.000Z,3.2
2022-08-21T13:49:31.000Z,2.8
2022-08-21T13:50:48.061Z,3.2
2022-08-21T13:52:03.000Z,3.3
2022-08-21T13:53:20.000Z,3.3
2022-08-21T13:54:36.494Z,2.8
2022-08-21T13:55:52.000Z,3.1
2022-08-21T13:57:08.000Z,2.9
2022-08-21T13:58:24.000Z,3.6
2022-08-21T13:59:40.000Z,2.8
2022-08-21T14:00:57.226Z,3.1
2022-08-21T14:02:12.000Z,2.9
2022-08-21T14:03:28.000Z,2.9
2022-08-21T14:04:44.000Z,3.7
2022-08-21T14:06:00.000Z,3.3
2022-08-21T14:07:16.000Z,2.8
2022-08-21T14:08:32.000Z,3.6
2022-08-21T14:09:49.000Z,3.4
2022-08-21T14:11:05.000Z,3.6
2022-08-21T14:12:21.000Z,3.5
2022-08-21T14:13:37.000Z,3.1
2022-08-21T14:14:53.840Z,3.7
2022-08-21T14:16:09.000Z,3.6
2022-08-21T14:17:25.000Z,3.1
2022-08-21T14:18:41.000Z,3.7
2022-08-21T14:19:57.000Z,3.1
2022-08-21T14:21:13.000Z,3.8
2022-08-21T14:22:29.000Z,3
2022-08-21T14:23:45.000Z,3.6
2022-08-21T14:25:01.000Z,3
2022-08-21T14:26:17.000Z,3.4
2022-08-21T14:27:34.000Z,2.7
2022-08-21T14:28:50.000Z,4
2022-08-21T14:30:06.000Z,3
2022-08-21T14:31:22.000Z,3
2022-08-21T14:32:38.000Z,2.7
2022-08-21T14:33:54.000Z,3.4
2022-08-21T14:35:09.000Z,3
2022-08-21T14:36:26.000Z,3.6
2022-08-21T14:37:42.000Z,3.6
2022-08-21T14:38:58.000Z,3.8
2022-08-21T14:40:14.000Z,2.9
2022-08-21T14:41:30.000Z,3.4
2022-08-21T14:42:46.000Z,2.8
2022-08-21T14:44:02.000Z,2.7
2022-08-21T14:45:19.360Z,3.3
2022-08-21T14:46:35.000Z,2.8
2022-08-21T14:47:51.000Z,3.2
2022-08-21T14:49:07.000Z,3
2022-08-21T14:50:23.000Z,2.8
2022-08-21T14:51:38.000Z,3.1
2022-08-21T14:52:55.000Z,2.8
2022-08-21T14:54:11.000Z,3.4
2022-08-21T14:55:27.000Z,2.8
2022-08-21T14:56:43.684Z,2.8
2022-08-21T14:57:59.000Z,3.1
2022-08-21T14:59:15.974Z,3.2
2022-08-21T15:00:32.115Z,3
2022-08-21T15:01:48.000Z,3
2022-08-21T15:03:04.000Z,2.6
2022-08-21T15:04:20.000Z,3.3
2022-08-21T15:05:36.000Z,3.1
2022-08-21T15:06:52.000Z,2.7
2022-08-21T15:08:07.000Z,2.3
2022-08-21T15:09:23.000Z,2.9
2022-08-21T15:10:40.000Z,3.1
2022-08-21T15:11:56.000Z,2.6
2022-08-21T15:13:12.590Z,3.4
2022-08-21T15:14:28.000Z,3.2
2022-08-21T15:15:44.000Z,2.3
2022-08-21T15:17:00.000Z,2.8
2022-08-21T15:18:16.000Z,2.3
2022-08-21T15:19:33.000Z,2.7
2022-08-21T15:20:49.000Z,2.7
2022-08-21T15:22:05.000Z,2.2
2022-08-21T15:23:21.754Z,2.8
2022-08-21T15:24:36.918Z,2.4
2022-08-21T15:25:52.000Z,2.4
2022-08-21T15:27:09.205Z,2.4
2022-08-21T15:28:25.000Z,2.3
2022-08-21T15:29:41.492Z,3.2
2022-08-21T15:30:57.000Z,2.4
2022-08-21T15:32:13.000Z,2.5
2022-08-21T15:33:29.000Z,2.9
2022-08-21T15:34:45.000Z,2.7
2022-08-21T15:36:01.000Z,2.3
2022-08-21T15:37:18.364Z,2.3
2022-08-21T15:38:34.000Z,2.4
2022-08-21T15:39:50.669Z,2.5
2022-08-21T15:41:05.821Z,2.4
2022-08-21T15:42:21.000Z,2.3
2022-08-21T15:43:37.000Z,2.5
2022-08-21T15:44:54.000Z,2.3
2022-08-21T15:46:10.000Z,2.7
2022-08-21T15:47:26.000Z,2.8
2022-08-21T15:48:42.000Z,2.5
2022-08-21T15:49:58.000Z,2.6
2022-08-21T15:51:14.000Z,2.6
2022-08-21T15:52:31.128Z,2.9
2022-08-21T15:53:47.000Z,2.9
2022-08-21T15:55:03.419Z,2.8
2022-08-21T15:56:19.000Z,3.1
2022-08-21T15:57:34.000Z,3.2
2022-08-21T15:58:50.000Z,3.1
2022-08-21T16:00:06.000Z,3.5
2022-08-21T16:01:22.000Z,2.9
2022-08-21T16:02:39.000Z,3.4
2022-08-21T16:03:55.000Z,3.4
2022-08-21T16:05:11.000Z,2.9
2022-08-21T16:06:27.000Z,3
2022-08-21T16:07:43.000Z,3.3
2022-08-21T16:08:59.000Z,2.8
2022-08-21T16:10:16.178Z,3.4
2022-08-21T16:11:32.322Z,2.9
2022-08-21T16:12:48.000Z,3
2022-08-21T16:14:03.000Z,2.7
2022-08-21T16:15:19.000Z,2.8
2022-08-21T16:16:35.000Z,2.8
2022-08-21T16:17:51.000Z,2.9
2022-08-21T16:19:07.000Z,2.9
2022-08-21T16:20:24.000Z,3
2022-08-21T16:21:40.504Z,2.4
2022-08-21T16:22:56.000Z,3.9
2022-08-21T16:24:12.000Z,2.6
2022-08-21T16:25:28.000Z,2.8
2022-08-21T16:26:44.000Z,3.3
2022-08-21T16:28:01.000Z,3
2022-08-21T16:29:17.000Z,3.2
2022-08-21T16:30:32.000Z,2.9
2022-08-21T16:31:48.000Z,2.8
2022-08-21T16:33:04.000Z,2.5
2022-08-21T16:34:20.000Z,2.2
2022-08-21T16:35:36.000Z,2.8
2022-08-21T16:36:53.000Z,3.1
2022-08-21T16:38:09.000Z,2.9
2022-08-21T16:39:25.551Z,3.6
2022-08-21T16:40:41.696Z,2.7
2022-08-21T16:41:57.000Z,3.7
2022-08-21T16:43:14.005Z,3.5
2022-08-21T16:44:29.000Z,3.1
2022-08-21T16:45:46.282Z,3.1
2022-08-21T16:47:01.000Z,3.3
2022-08-21T16:48:17.000Z,4
2022-08-21T16:49:33.000Z,3.4
2022-08-21T16:50:49.000Z,3.5
2022-08-21T16:52:05.000Z,2.8
2022-08-21T16:53:21.000Z,2.9
2022-08-21T16:54:38.000Z,2.9
2022-08-21T16:55:54.000Z,3.1
2022-08-21T16:57:10.000Z,3.3
2022-08-21T16:58:26.000Z,3
2022-08-21T16:59:42.000Z,3.2
2022-08-21T17:00:58.000Z,3
2022-08-21T17:02:14.000Z,3
2022-08-21T17:03:30.000Z,3.4
2022-08-21T17:04:46.493Z,3
2022-08-21T17:06:02.000Z,2.9
2022-08-21T17:07:18.000Z,3.1
2022-08-21T17:08:34.930Z,2.5
2022-08-21T17:09:51.083Z,2.7
2022-08-21T17:11:06.000Z,3
2022-08-21T17:12:23.000Z,3
2022-08-21T17:13:39.000Z,3.1
2022-08-21T17:14:55.000Z,2.5
2022-08-21T17:16:11.000Z,2.9
2022-08-21T17:17:27.000Z,3.2
2022-08-21T17:18:43.000Z,3.1
2022-08-21T17:19:59.000Z,2.7
2022-08-21T17:21:15.000Z,3.2
2022-08-21T17:22:31.000Z,2.9